Impacts TAF Board INFO
FOR SITUATIONAL AWARENESS. NOT TO BE USED FOR FLIGHT PLANNING PURPOSES.
IDs:

KBTR - Baton Rouge/Ryan Fld, LA, US

Issued at 1740 UTC 23 May 2018
Updated at 2219 UTC 23 May 2018
Potential Impact None Slight Moderate High
Time<<24/11Z 24/12Z 24/13Z 24/14Z 24/15Z 24/16Z 24/17Z 24/18Z 24/19Z 24/20Z 24/21Z 24/22Z 24/23Z>>
Type PRVL PRVL PRVL PRVL PRVL PRVL PRVL
VIS >6 >6 >6 >6 >6 >6 >6
CIG -- -- -- 100 100 100 100
Cover FEW FEW FEW BKN BKN BKN BKN
FltCat VFR VFR VFR VFR VFR VFR VFR
WX -- -- -- -- -- -- --
WDir VRB VRB VRB VRB VRB VRB VRB
WSpd 0 0 0 4 4 4 4
WGst -- -- -- -- -- -- --

Raw TAF
KBTR 231740Z 2318/2418 04005KT P6SM VCTS FEW035CB
  FM232100 07005KT P6SM VCTS SCT035CB
  FM240300 00000KT P6SM FEW040
  FM241400 VRB04KT P6SM SCT025 BKN100


METAR Board
Radar Display
Forecast Discussion

FOR SITUATIONAL AWARENESS. NOT TO BE USED FOR FLIGHT PLANNING PURPOSES.